sensor_id;sensor_type;location;lat;lon;timestamp;P1;durP1;ratioP1;P2;durP2;ratioP2
57643;SDS011;43474;46.510;6.686;2022-09-09T00:04:20;2.45;;;1.15;;
57643;SDS011;43474;46.510;6.686;2022-09-09T00:09:33;1.85;;;1.08;;
57643;SDS011;43474;46.510;6.686;2022-09-09T00:12:12;3.33;;;0.90;;
57643;SDS011;43474;46.510;6.686;2022-09-09T00:14:56;1.25;;;0.70;;
57643;SDS011;43474;46.510;6.686;2022-09-09T00:17:38;1.55;;;0.80;;
57643;SDS011;43474;46.510;6.686;2022-09-09T00:22:44;1.52;;;0.60;;
57643;SDS011;43474;46.510;6.686;2022-09-09T00:25:34;0.82;;;0.55;;
57643;SDS011;43474;46.510;6.686;2022-09-09T00:28:15;3.47;;;0.98;;
57643;SDS011;43474;46.510;6.686;2022-09-09T00:30:44;2.50;;;0.68;;
57643;SDS011;43474;46.510;6.686;2022-09-09T00:33:13;1.80;;;0.65;;
57643;SDS011;43474;46.510;6.686;2022-09-09T00:35:45;1.77;;;0.80;;
57643;SDS011;43474;46.510;6.686;2022-09-09T00:38:14;1.02;;;0.65;;
57643;SDS011;43474;46.510;6.686;2022-09-09T00:40:52;1.42;;;0.50;;
57643;SDS011;43474;46.510;6.686;2022-09-09T00:43:31;1.40;;;0.50;;
57643;SDS011;43474;46.510;6.686;2022-09-09T00:51:15;1.95;;;0.52;;
57643;SDS011;43474;46.510;6.686;2022-09-09T00:53:58;2.55;;;0.40;;
57643;SDS011;43474;46.510;6.686;2022-09-09T00:56:43;0.95;;;0.60;;
57643;SDS011;43474;46.510;6.686;2022-09-09T01:02:02;1.13;;;0.50;;
57643;SDS011;43474;46.510;6.686;2022-09-09T01:04:38;6.68;;;0.90;;
57643;SDS011;43474;46.510;6.686;2022-09-09T01:07:07;2.70;;;0.85;;
57643;SDS011;43474;46.510;6.686;2022-09-09T01:12:38;2.30;;;0.60;;
57643;SDS011;43474;46.510;6.686;2022-09-09T01:15:11;0.65;;;0.60;;
57643;SDS011;43474;46.510;6.686;2022-09-09T01:18:05;3.50;;;0.80;;
57643;SDS011;43474;46.510;6.686;2022-09-09T01:23:41;2.13;;;0.95;;
57643;SDS011;43474;46.510;6.686;2022-09-09T01:28:47;1.30;;;0.73;;
57643;SDS011;43474;46.510;6.686;2022-09-09T01:31:16;1.00;;;0.68;;
57643;SDS011;43474;46.510;6.686;2022-09-09T01:33:45;2.13;;;0.70;;
57643;SDS011;43474;46.510;6.686;2022-09-09T01:36:32;1.50;;;0.65;;
57643;SDS011;43474;46.510;6.686;2022-09-09T01:39:20;1.65;;;0.68;;
57643;SDS011;43474;46.510;6.686;2022-09-09T01:41:46;2.33;;;0.82;;
57643;SDS011;43474;46.510;6.686;2022-09-09T01:44:11;1.73;;;0.68;;
57643;SDS011;43474;46.510;6.686;2022-09-09T01:46:37;3.45;;;1.27;;
57643;SDS011;43474;46.510;6.686;2022-09-09T01:49:03;1.58;;;0.82;;
57643;SDS011;43474;46.510;6.686;2022-09-09T01:51:32;1.48;;;0.73;;
57643;SDS011;43474;46.510;6.686;2022-09-09T01:53:58;1.65;;;0.75;;
57643;SDS011;43474;46.510;6.686;2022-09-09T01:56:47;1.10;;;0.80;;
57643;SDS011;43474;46.510;6.686;2022-09-09T02:02:19;2.80;;;0.85;;
57643;SDS011;43474;46.510;6.686;2022-09-09T02:04:54;1.83;;;0.80;;
57643;SDS011;43474;46.510;6.686;2022-09-09T02:07:43;0.90;;;0.70;;
57643;SDS011;43474;46.510;6.686;2022-09-09T02:10:19;2.30;;;0.95;;
57643;SDS011;43474;46.510;6.686;2022-09-09T02:13:05;2.53;;;0.82;;
57643;SDS011;43474;46.510;6.686;2022-09-09T02:15:47;3.85;;;0.75;;
57643;SDS011;43474;46.510;6.686;2022-09-09T02:18:34;1.88;;;0.70;;
57643;SDS011;43474;46.510;6.686;2022-09-09T02:21:07;1.10;;;0.85;;
57643;SDS011;43474;46.510;6.686;2022-09-09T02:23:33;1.75;;;0.90;;
57643;SDS011;43474;46.510;6.686;2022-09-09T02:26:00;3.10;;;0.90;;
57643;SDS011;43474;46.510;6.686;2022-09-09T02:28:28;2.20;;;0.82;;
57643;SDS011;43474;46.510;6.686;2022-09-09T02:30:57;2.28;;;1.00;;
57643;SDS011;43474;46.510;6.686;2022-09-09T02:33:24;1.05;;;0.70;;
57643;SDS011;43474;46.510;6.686;2022-09-09T02:35:53;4.75;;;0.90;;
57643;SDS011;43474;46.510;6.686;2022-09-09T02:38:26;2.50;;;0.95;;
57643;SDS011;43474;46.510;6.686;2022-09-09T02:40:55;2.55;;;0.80;;
57643;SDS011;43474;46.510;6.686;2022-09-09T02:43:20;2.67;;;0.88;;
57643;SDS011;43474;46.510;6.686;2022-09-09T02:45:59;0.85;;;0.85;;
57643;SDS011;43474;46.510;6.686;2022-09-09T02:48:34;0.68;;;0.50;;
57643;SDS011;43474;46.510;6.686;2022-09-09T02:56:43;1.00;;;0.75;;
57643;SDS011;43474;46.510;6.686;2022-09-09T02:59:15;2.63;;;0.80;;
57643;SDS011;43474;46.510;6.686;2022-09-09T03:01:41;1.48;;;0.80;;
57643;SDS011;43474;46.510;6.686;2022-09-09T03:04:07;0.50;;;0.50;;
57643;SDS011;43474;46.510;6.686;2022-09-09T03:06:32;1.45;;;0.50;;
57643;SDS011;43474;46.510;6.686;2022-09-09T03:08:58;1.35;;;0.75;;
57643;SDS011;43474;46.510;6.686;2022-09-09T03:11:26;1.02;;;0.80;;
57643;SDS011;43474;46.510;6.686;2022-09-09T03:13:53;2.72;;;0.75;;
57643;SDS011;43474;46.510;6.686;2022-09-09T03:16:21;2.53;;;0.90;;
57643;SDS011;43474;46.510;6.686;2022-09-09T03:18:47;2.60;;;0.90;;
57643;SDS011;43474;46.510;6.686;2022-09-09T03:21:12;2.58;;;0.70;;
57643;SDS011;43474;46.510;6.686;2022-09-09T03:23:38;1.20;;;0.70;;
57643;SDS011;43474;46.510;6.686;2022-09-09T03:26:04;0.63;;;0.60;;
57643;SDS011;43474;46.510;6.686;2022-09-09T03:28:30;2.15;;;0.70;;
57643;SDS011;43474;46.510;6.686;2022-09-09T03:31:03;0.88;;;0.50;;
57643;SDS011;43474;46.510;6.686;2022-09-09T03:33:29;0.85;;;0.60;;
57643;SDS011;43474;46.510;6.686;2022-09-09T03:35:56;0.40;;;0.40;;
57643;SDS011;43474;46.510;6.686;2022-09-09T03:38:25;0.82;;;0.65;;
57643;SDS011;43474;46.510;6.686;2022-09-09T03:40:51;1.13;;;0.65;;
57643;SDS011;43474;46.510;6.686;2022-09-09T03:45:51;2.35;;;0.80;;
57643;SDS011;43474;46.510;6.686;2022-09-09T03:48:17;1.15;;;0.80;;
57643;SDS011;43474;46.510;6.686;2022-09-09T03:50:48;3.53;;;0.73;;
57643;SDS011;43474;46.510;6.686;2022-09-09T03:53:16;1.75;;;0.50;;
57643;SDS011;43474;46.510;6.686;2022-09-09T03:55:45;0.70;;;0.60;;
57643;SDS011;43474;46.510;6.686;2022-09-09T03:58:13;1.47;;;0.67;;
57643;SDS011;43474;46.510;6.686;2022-09-09T04:00:39;2.55;;;0.70;;
57643;SDS011;43474;46.510;6.686;2022-09-09T04:03:08;1.17;;;0.60;;
57643;SDS011;43474;46.510;6.686;2022-09-09T04:05:35;1.17;;;0.60;;
57643;SDS011;43474;46.510;6.686;2022-09-09T04:08:05;1.30;;;0.77;;
57643;SDS011;43474;46.510;6.686;2022-09-09T04:10:31;5.18;;;0.80;;
57643;SDS011;43474;46.510;6.686;2022-09-09T04:12:57;1.80;;;1.00;;
57643;SDS011;43474;46.510;6.686;2022-09-09T04:15:23;0.70;;;0.70;;
57643;SDS011;43474;46.510;6.686;2022-09-09T04:17:48;1.15;;;0.80;;
57643;SDS011;43474;46.510;6.686;2022-09-09T04:20:15;1.92;;;0.90;;
57643;SDS011;43474;46.510;6.686;2022-09-09T04:22:40;1.58;;;0.80;;
57643;SDS011;43474;46.510;6.686;2022-09-09T04:25:05;2.00;;;0.80;;
57643;SDS011;43474;46.510;6.686;2022-09-09T04:27:32;3.97;;;0.77;;
57643;SDS011;43474;46.510;6.686;2022-09-09T04:29:57;3.03;;;0.77;;
57643;SDS011;43474;46.510;6.686;2022-09-09T04:32:23;2.08;;;0.70;;
57643;SDS011;43474;46.510;6.686;2022-09-09T04:34:51;1.60;;;0.88;;
57643;SDS011;43474;46.510;6.686;2022-09-09T04:37:17;0.95;;;0.68;;
57643;SDS011;43474;46.510;6.686;2022-09-09T04:39:42;1.80;;;1.10;;
57643;SDS011;43474;46.510;6.686;2022-09-09T04:42:08;1.95;;;1.00;;
57643;SDS011;43474;46.510;6.686;2022-09-09T04:44:34;2.03;;;0.85;;
57643;SDS011;43474;46.510;6.686;2022-09-09T04:46:59;1.50;;;0.90;;
57643;SDS011;43474;46.510;6.686;2022-09-09T04:49:25;4.05;;;0.80;;
57643;SDS011;43474;46.510;6.686;2022-09-09T04:51:51;1.65;;;0.90;;
57643;SDS011;43474;46.510;6.686;2022-09-09T04:54:16;1.00;;;0.80;;
57643;SDS011;43474;46.510;6.686;2022-09-09T04:56:42;2.75;;;1.73;;
57643;SDS011;43474;46.510;6.686;2022-09-09T04:59:08;1.98;;;1.10;;
57643;SDS011;43474;46.510;6.686;2022-09-09T05:01:35;1.65;;;1.00;;
57643;SDS011;43474;46.510;6.686;2022-09-09T05:04:02;2.28;;;0.82;;
57643;SDS011;43474;46.510;6.686;2022-09-09T05:06:28;5.70;;;0.95;;
57643;SDS011;43474;46.510;6.686;2022-09-09T05:08:56;1.90;;;0.93;;
57643;SDS011;43474;46.510;6.686;2022-09-09T05:11:24;0.90;;;0.80;;
57643;SDS011;43474;46.510;6.686;2022-09-09T05:13:52;1.95;;;1.15;;
57643;SDS011;43474;46.510;6.686;2022-09-09T05:16:19;2.50;;;1.00;;
57643;SDS011;43474;46.510;6.686;2022-09-09T05:18:46;2.35;;;1.10;;
57643;SDS011;43474;46.510;6.686;2022-09-09T05:21:12;1.75;;;1.10;;
57643;SDS011;43474;46.510;6.686;2022-09-09T05:23:39;1.13;;;0.80;;
57643;SDS011;43474;46.510;6.686;2022-09-09T05:26:05;4.97;;;1.75;;
57643;SDS011;43474;46.510;6.686;2022-09-09T05:28:33;1.73;;;0.90;;
57643;SDS011;43474;46.510;6.686;2022-09-09T05:31:01;1.98;;;0.90;;
57643;SDS011;43474;46.510;6.686;2022-09-09T05:33:30;1.35;;;1.00;;
57643;SDS011;43474;46.510;6.686;2022-09-09T05:36:02;0.98;;;0.80;;
57643;SDS011;43474;46.510;6.686;2022-09-09T05:38:31;1.33;;;1.00;;
57643;SDS011;43474;46.510;6.686;2022-09-09T05:40:58;1.70;;;0.82;;
57643;SDS011;43474;46.510;6.686;2022-09-09T05:43:24;3.25;;;1.00;;
57643;SDS011;43474;46.510;6.686;2022-09-09T05:46:01;2.42;;;1.42;;
57643;SDS011;43474;46.510;6.686;2022-09-09T05:48:27;5.45;;;1.52;;
57643;SDS011;43474;46.510;6.686;2022-09-09T05:50:54;1.38;;;1.00;;
57643;SDS011;43474;46.510;6.686;2022-09-09T05:53:20;1.88;;;0.90;;
57643;SDS011;43474;46.510;6.686;2022-09-09T05:55:45;4.43;;;1.02;;
57643;SDS011;43474;46.510;6.686;2022-09-09T05:58:11;2.83;;;1.15;;
57643;SDS011;43474;46.510;6.686;2022-09-09T06:00:37;2.65;;;1.10;;
57643;SDS011;43474;46.510;6.686;2022-09-09T06:03:02;1.63;;;1.00;;
57643;SDS011;43474;46.510;6.686;2022-09-09T06:05:29;1.42;;;0.98;;
57643;SDS011;43474;46.510;6.686;2022-09-09T06:07:55;6.13;;;1.27;;
57643;SDS011;43474;46.510;6.686;2022-09-09T06:10:21;2.25;;;1.15;;
57643;SDS011;43474;46.510;6.686;2022-09-09T06:12:47;2.03;;;1.23;;
57643;SDS011;43474;46.510;6.686;2022-09-09T06:15:13;2.97;;;0.90;;
57643;SDS011;43474;46.510;6.686;2022-09-09T06:17:38;1.27;;;1.08;;
57643;SDS011;43474;46.510;6.686;2022-09-09T06:20:04;3.28;;;0.90;;
57643;SDS011;43474;46.510;6.686;2022-09-09T06:22:30;2.95;;;1.20;;
57643;SDS011;43474;46.510;6.686;2022-09-09T06:24:56;5.88;;;1.40;;
57643;SDS011;43474;46.510;6.686;2022-09-09T06:27:21;2.25;;;1.15;;
57643;SDS011;43474;46.510;6.686;2022-09-09T06:29:47;1.85;;;1.10;;
57643;SDS011;43474;46.510;6.686;2022-09-09T06:32:13;4.32;;;1.40;;
57643;SDS011;43474;46.510;6.686;2022-09-09T06:34:39;1.95;;;1.20;;
57643;SDS011;43474;46.510;6.686;2022-09-09T06:37:05;1.80;;;1.10;;
57643;SDS011;43474;46.510;6.686;2022-09-09T06:39:31;2.42;;;1.27;;
57643;SDS011;43474;46.510;6.686;2022-09-09T06:41:57;2.47;;;1.30;;
57643;SDS011;43474;46.510;6.686;2022-09-09T06:44:23;3.10;;;1.48;;
57643;SDS011;43474;46.510;6.686;2022-09-09T06:46:51;4.10;;;1.60;;
57643;SDS011;43474;46.510;6.686;2022-09-09T06:49:17;3.08;;;1.33;;
57643;SDS011;43474;46.510;6.686;2022-09-09T06:51:43;5.10;;;1.30;;
57643;SDS011;43474;46.510;6.686;2022-09-09T06:54:09;5.25;;;1.50;;
57643;SDS011;43474;46.510;6.686;2022-09-09T06:56:37;3.92;;;1.42;;
57643;SDS011;43474;46.510;6.686;2022-09-09T06:59:07;3.33;;;1.57;;
57643;SDS011;43474;46.510;6.686;2022-09-09T07:01:38;1.83;;;1.27;;
57643;SDS011;43474;46.510;6.686;2022-09-09T07:04:08;2.25;;;1.25;;
57643;SDS011;43474;46.510;6.686;2022-09-09T07:06:37;2.55;;;1.45;;
57643;SDS011;43474;46.510;6.686;2022-09-09T07:09:05;6.30;;;1.40;;
57643;SDS011;43474;46.510;6.686;2022-09-09T07:11:33;1.98;;;1.05;;
57643;SDS011;43474;46.510;6.686;2022-09-09T07:14:19;3.53;;;1.17;;
57643;SDS011;43474;46.510;6.686;2022-09-09T07:16:45;2.70;;;1.25;;
57643;SDS011;43474;46.510;6.686;2022-09-09T07:19:11;3.08;;;1.30;;
57643;SDS011;43474;46.510;6.686;2022-09-09T07:21:38;2.15;;;1.30;;
57643;SDS011;43474;46.510;6.686;2022-09-09T07:24:05;2.72;;;1.30;;
57643;SDS011;43474;46.510;6.686;2022-09-09T07:26:35;3.55;;;1.30;;
57643;SDS011;43474;46.510;6.686;2022-09-09T07:29:01;2.17;;;1.00;;
57643;SDS011;43474;46.510;6.686;2022-09-09T07:31:29;1.90;;;1.30;;
57643;SDS011;43474;46.510;6.686;2022-09-09T07:33:57;2.75;;;1.10;;
57643;SDS011;43474;46.510;6.686;2022-09-09T07:36:24;3.17;;;1.15;;
57643;SDS011;43474;46.510;6.686;2022-09-09T07:38:52;4.43;;;1.88;;
57643;SDS011;43474;46.510;6.686;2022-09-09T07:41:21;2.00;;;1.20;;
57643;SDS011;43474;46.510;6.686;2022-09-09T07:43:49;2.33;;;1.05;;
57643;SDS011;43474;46.510;6.686;2022-09-09T07:46:16;2.50;;;1.00;;
57643;SDS011;43474;46.510;6.686;2022-09-09T07:48:50;2.53;;;1.00;;
57643;SDS011;43474;46.510;6.686;2022-09-09T07:51:24;4.18;;;1.02;;
57643;SDS011;43474;46.510;6.686;2022-09-09T07:53:53;1.42;;;0.90;;
57643;SDS011;43474;46.510;6.686;2022-09-09T07:56:21;2.25;;;1.13;;
57643;SDS011;43474;46.510;6.686;2022-09-09T07:58:48;3.67;;;1.20;;
57643;SDS011;43474;46.510;6.686;2022-09-09T08:01:16;4.13;;;1.40;;
57643;SDS011;43474;46.510;6.686;2022-09-09T08:03:47;1.95;;;1.10;;
57643;SDS011;43474;46.510;6.686;2022-09-09T08:06:19;1.58;;;0.88;;
57643;SDS011;43474;46.510;6.686;2022-09-09T08:08:45;3.38;;;1.00;;
57643;SDS011;43474;46.510;6.686;2022-09-09T08:11:15;3.33;;;1.40;;
57643;SDS011;43474;46.510;6.686;2022-09-09T08:13:41;3.97;;;1.38;;
57643;SDS011;43474;46.510;6.686;2022-09-09T08:16:16;1.70;;;1.20;;
57643;SDS011;43474;46.510;6.686;2022-09-09T08:18:43;1.17;;;1.08;;
57643;SDS011;43474;46.510;6.686;2022-09-09T08:23:37;3.17;;;1.13;;
57643;SDS011;43474;46.510;6.686;2022-09-09T08:26:09;3.88;;;1.23;;
57643;SDS011;43474;46.510;6.686;2022-09-09T08:28:40;2.80;;;1.20;;
57643;SDS011;43474;46.510;6.686;2022-09-09T08:31:07;4.07;;;1.10;;
57643;SDS011;43474;46.510;6.686;2022-09-09T08:33:35;1.58;;;1.10;;
57643;SDS011;43474;46.510;6.686;2022-09-09T08:36:03;1.55;;;1.08;;
57643;SDS011;43474;46.510;6.686;2022-09-09T08:38:30;2.55;;;1.00;;
57643;SDS011;43474;46.510;6.686;2022-09-09T08:40:58;4.20;;;1.23;;
57643;SDS011;43474;46.510;6.686;2022-09-09T08:43:36;1.27;;;1.10;;
57643;SDS011;43474;46.510;6.686;2022-09-09T08:46:22;2.15;;;1.00;;
57643;SDS011;43474;46.510;6.686;2022-09-09T08:49:02;2.13;;;1.27;;
57643;SDS011;43474;46.510;6.686;2022-09-09T08:51:43;1.73;;;0.88;;
57643;SDS011;43474;46.510;6.686;2022-09-09T08:54:09;4.30;;;1.23;;
57643;SDS011;43474;46.510;6.686;2022-09-09T08:56:35;2.17;;;1.10;;
57643;SDS011;43474;46.510;6.686;2022-09-09T08:59:01;1.92;;;1.02;;
57643;SDS011;43474;46.510;6.686;2022-09-09T09:03:59;2.55;;;1.17;;
57643;SDS011;43474;46.510;6.686;2022-09-09T09:11:23;0.98;;;0.80;;
57643;SDS011;43474;46.510;6.686;2022-09-09T09:19:04;3.65;;;1.10;;
57643;SDS011;43474;46.510;6.686;2022-09-09T09:21:34;3.53;;;1.00;;
57643;SDS011;43474;46.510;6.686;2022-09-09T09:24:05;2.40;;;0.60;;
57643;SDS011;43474;46.510;6.686;2022-09-09T09:26:40;2.58;;;1.20;;
57643;SDS011;43474;46.510;6.686;2022-09-09T09:29:10;1.85;;;0.82;;
57643;SDS011;43474;46.510;6.686;2022-09-09T09:31:48;3.33;;;0.82;;
57643;SDS011;43474;46.510;6.686;2022-09-09T09:34:17;1.23;;;0.80;;
57643;SDS011;43474;46.510;6.686;2022-09-09T09:36:52;1.13;;;0.90;;
57643;SDS011;43474;46.510;6.686;2022-09-09T09:39:26;3.10;;;0.85;;
57643;SDS011;43474;46.510;6.686;2022-09-09T09:41:54;1.13;;;0.85;;
57643;SDS011;43474;46.510;6.686;2022-09-09T09:44:23;2.03;;;0.80;;
57643;SDS011;43474;46.510;6.686;2022-09-09T09:46:51;1.73;;;0.60;;
57643;SDS011;43474;46.510;6.686;2022-09-09T09:49:17;1.55;;;0.82;;
57643;SDS011;43474;46.510;6.686;2022-09-09T09:51:43;2.80;;;1.85;;
57643;SDS011;43474;46.510;6.686;2022-09-09T09:54:13;2.40;;;1.25;;
57643;SDS011;43474;46.510;6.686;2022-09-09T09:56:44;1.95;;;0.80;;
57643;SDS011;43474;46.510;6.686;2022-09-09T10:04:41;2.30;;;0.70;;
57643;SDS011;43474;46.510;6.686;2022-09-09T10:07:10;1.45;;;0.70;;
57643;SDS011;43474;46.510;6.686;2022-09-09T10:09:37;1.48;;;0.60;;
57643;SDS011;43474;46.510;6.686;2022-09-09T10:12:11;3.17;;;0.80;;
57643;SDS011;43474;46.510;6.686;2022-09-09T10:14:43;2.50;;;0.80;;
57643;SDS011;43474;46.510;6.686;2022-09-09T10:22:50;2.20;;;0.90;;
57643;SDS011;43474;46.510;6.686;2022-09-09T10:25:20;3.38;;;0.80;;
57643;SDS011;43474;46.510;6.686;2022-09-09T10:28:09;1.75;;;0.80;;
57643;SDS011;43474;46.510;6.686;2022-09-09T10:33:50;1.00;;;0.60;;
57643;SDS011;43474;46.510;6.686;2022-09-09T10:36:23;0.82;;;0.60;;
57643;SDS011;43474;46.510;6.686;2022-09-09T10:39:35;2.58;;;0.90;;
57643;SDS011;43474;46.510;6.686;2022-09-09T10:41:51;1.60;;;0.80;;
57643;SDS011;43474;46.510;6.686;2022-09-09T10:52:50;1.70;;;1.08;;
57643;SDS011;43474;46.510;6.686;2022-09-09T10:55:30;2.50;;;0.80;;
57643;SDS011;43474;46.510;6.686;2022-09-09T10:58:05;1.98;;;0.80;;
57643;SDS011;43474;46.510;6.686;2022-09-09T11:03:05;2.25;;;0.70;;
57643;SDS011;43474;46.510;6.686;2022-09-09T11:08:20;2.40;;;0.90;;
57643;SDS011;43474;46.510;6.686;2022-09-09T11:10:49;2.70;;;0.80;;
57643;SDS011;43474;46.510;6.686;2022-09-09T11:13:26;1.75;;;1.05;;
57643;SDS011;43474;46.510;6.686;2022-09-09T11:16:21;1.23;;;0.63;;
57643;SDS011;43474;46.510;6.686;2022-09-09T11:19:19;1.95;;;0.80;;
57643;SDS011;43474;46.510;6.686;2022-09-09T11:21:52;3.78;;;0.80;;
57643;SDS011;43474;46.510;6.686;2022-09-09T11:24:27;1.85;;;0.80;;
57643;SDS011;43474;46.510;6.686;2022-09-09T11:26:55;2.00;;;0.80;;
57643;SDS011;43474;46.510;6.686;2022-09-09T11:35:26;1.58;;;0.50;;
57643;SDS011;43474;46.510;6.686;2022-09-09T11:40:40;3.20;;;0.60;;
57643;SDS011;43474;46.510;6.686;2022-09-09T11:43:10;1.55;;;0.63;;
57643;SDS011;43474;46.510;6.686;2022-09-09T11:45:40;1.45;;;0.60;;
57643;SDS011;43474;46.510;6.686;2022-09-09T11:48:22;2.10;;;0.65;;
57643;SDS011;43474;46.510;6.686;2022-09-09T11:53:33;1.30;;;0.68;;
57643;SDS011;43474;46.510;6.686;2022-09-09T11:56:07;1.65;;;0.60;;
57643;SDS011;43474;46.510;6.686;2022-09-09T11:58:37;0.82;;;0.60;;
57643;SDS011;43474;46.510;6.686;2022-09-09T12:06:32;1.08;;;0.50;;
57643;SDS011;43474;46.510;6.686;2022-09-09T12:09:08;2.42;;;0.50;;
57643;SDS011;43474;46.510;6.686;2022-09-09T12:11:43;0.88;;;0.50;;
57643;SDS011;43474;46.510;6.686;2022-09-09T12:14:18;1.17;;;0.45;;
57643;SDS011;43474;46.510;6.686;2022-09-09T12:16:46;0.70;;;0.43;;
57643;SDS011;43474;46.510;6.686;2022-09-09T12:29:36;2.85;;;0.80;;
57643;SDS011;43474;46.510;6.686;2022-09-09T12:32:21;1.38;;;0.40;;
57643;SDS011;43474;46.510;6.686;2022-09-09T12:35:24;2.63;;;0.45;;
57643;SDS011;43474;46.510;6.686;2022-09-09T12:42:45;2.63;;;0.40;;
57643;SDS011;43474;46.510;6.686;2022-09-09T12:45:18;0.82;;;0.30;;
57643;SDS011;43474;46.510;6.686;2022-09-09T12:47:56;1.10;;;0.45;;
57643;SDS011;43474;46.510;6.686;2022-09-09T12:50:49;2.05;;;0.40;;
57643;SDS011;43474;46.510;6.686;2022-09-09T12:53:22;1.80;;;0.50;;
57643;SDS011;43474;46.510;6.686;2022-09-09T12:56:00;1.10;;;0.40;;
57643;SDS011;43474;46.510;6.686;2022-09-09T12:58:30;1.13;;;0.30;;
57643;SDS011;43474;46.510;6.686;2022-09-09T13:01:00;2.10;;;0.60;;
57643;SDS011;43474;46.510;6.686;2022-09-09T13:03:29;2.17;;;0.50;;
57643;SDS011;43474;46.510;6.686;2022-09-09T13:05:57;1.73;;;0.55;;
57643;SDS011;43474;46.510;6.686;2022-09-09T13:08:27;4.53;;;0.50;;
57643;SDS011;43474;46.510;6.686;2022-09-09T13:10:54;3.70;;;0.50;;
57643;SDS011;43474;46.510;6.686;2022-09-09T13:13:35;4.03;;;0.63;;
57643;SDS011;43474;46.510;6.686;2022-09-09T13:16:03;2.80;;;0.50;;
57643;SDS011;43474;46.510;6.686;2022-09-09T13:18:34;2.83;;;0.77;;
57643;SDS011;43474;46.510;6.686;2022-09-09T13:21:01;1.25;;;0.40;;
57643;SDS011;43474;46.510;6.686;2022-09-09T13:23:37;2.70;;;0.40;;
57643;SDS011;43474;46.510;6.686;2022-09-09T13:28:46;3.45;;;0.40;;
57643;SDS011;43474;46.510;6.686;2022-09-09T13:31:29;1.35;;;0.40;;
57643;SDS011;43474;46.510;6.686;2022-09-09T13:33:56;1.65;;;0.45;;
57643;SDS011;43474;46.510;6.686;2022-09-09T13:36:29;0.63;;;0.40;;
57643;SDS011;43474;46.510;6.686;2022-09-09T13:38:57;4.40;;;0.63;;
57643;SDS011;43474;46.510;6.686;2022-09-09T13:41:41;2.25;;;0.60;;
57643;SDS011;43474;46.510;6.686;2022-09-09T13:44:33;2.42;;;0.60;;
57643;SDS011;43474;46.510;6.686;2022-09-09T13:49:44;1.10;;;0.40;;
57643;SDS011;43474;46.510;6.686;2022-09-09T13:52:17;2.38;;;0.50;;
57643;SDS011;43474;46.510;6.686;2022-09-09T13:54:49;2.75;;;0.52;;
57643;SDS011;43474;46.510;6.686;2022-09-09T13:57:18;2.33;;;0.50;;
57643;SDS011;43474;46.510;6.686;2022-09-09T13:59:46;2.35;;;0.60;;
57643;SDS011;43474;46.510;6.686;2022-09-09T14:02:12;1.05;;;0.60;;
57643;SDS011;43474;46.510;6.686;2022-09-09T14:04:37;3.63;;;0.60;;
57643;SDS011;43474;46.510;6.686;2022-09-09T14:07:03;1.75;;;0.52;;
57643;SDS011;43474;46.510;6.686;2022-09-09T14:09:28;1.73;;;0.90;;
57643;SDS011;43474;46.510;6.686;2022-09-09T14:11:54;3.80;;;0.50;;
57643;SDS011;43474;46.510;6.686;2022-09-09T14:14:22;1.92;;;0.70;;
57643;SDS011;43474;46.510;6.686;2022-09-09T14:16:48;1.83;;;0.55;;
57643;SDS011;43474;46.510;6.686;2022-09-09T14:19:14;1.40;;;0.60;;
57643;SDS011;43474;46.510;6.686;2022-09-09T14:21:39;2.28;;;0.45;;
57643;SDS011;43474;46.510;6.686;2022-09-09T14:24:05;1.05;;;0.50;;
57643;SDS011;43474;46.510;6.686;2022-09-09T14:26:31;2.25;;;0.60;;
57643;SDS011;43474;46.510;6.686;2022-09-09T14:28:57;1.13;;;0.60;;
57643;SDS011;43474;46.510;6.686;2022-09-09T14:31:23;1.17;;;0.60;;
57643;SDS011;43474;46.510;6.686;2022-09-09T14:33:50;2.67;;;0.70;;
57643;SDS011;43474;46.510;6.686;2022-09-09T14:36:16;1.60;;;0.50;;
57643;SDS011;43474;46.510;6.686;2022-09-09T14:38:42;1.20;;;0.60;;
57643;SDS011;43474;46.510;6.686;2022-09-09T14:41:11;3.78;;;0.82;;
57643;SDS011;43474;46.510;6.686;2022-09-09T14:43:39;2.45;;;0.60;;
57643;SDS011;43474;46.510;6.686;2022-09-09T14:46:05;0.88;;;0.50;;
57643;SDS011;43474;46.510;6.686;2022-09-09T14:48:32;1.92;;;0.60;;
57643;SDS011;43474;46.510;6.686;2022-09-09T14:51:04;2.05;;;0.50;;
57643;SDS011;43474;46.510;6.686;2022-09-09T14:53:44;2.30;;;0.50;;
57643;SDS011;43474;46.510;6.686;2022-09-09T14:56:12;2.10;;;0.60;;
57643;SDS011;43474;46.510;6.686;2022-09-09T14:58:39;2.65;;;0.75;;
57643;SDS011;43474;46.510;6.686;2022-09-09T15:01:06;2.95;;;0.82;;
57643;SDS011;43474;46.510;6.686;2022-09-09T15:03:40;1.95;;;0.52;;
57643;SDS011;43474;46.510;6.686;2022-09-09T15:06:11;1.95;;;0.70;;
57643;SDS011;43474;46.510;6.686;2022-09-09T15:11:05;1.90;;;0.60;;
57643;SDS011;43474;46.510;6.686;2022-09-09T15:13:33;2.13;;;0.60;;
57643;SDS011;43474;46.510;6.686;2022-09-09T15:16:12;1.70;;;0.60;;
57643;SDS011;43474;46.510;6.686;2022-09-09T15:21:11;1.00;;;0.50;;
57643;SDS011;43474;46.510;6.686;2022-09-09T15:23:38;0.95;;;0.45;;
57643;SDS011;43474;46.510;6.686;2022-09-09T15:26:05;1.27;;;0.60;;
57643;SDS011;43474;46.510;6.686;2022-09-09T15:28:35;1.88;;;0.77;;
57643;SDS011;43474;46.510;6.686;2022-09-09T15:31:04;2.28;;;0.70;;
57643;SDS011;43474;46.510;6.686;2022-09-09T15:33:32;0.77;;;0.52;;
57643;SDS011;43474;46.510;6.686;2022-09-09T15:35:59;1.10;;;0.50;;
57643;SDS011;43474;46.510;6.686;2022-09-09T15:38:24;6.40;;;0.77;;
57643;SDS011;43474;46.510;6.686;2022-09-09T15:40:53;2.78;;;0.90;;
57643;SDS011;43474;46.510;6.686;2022-09-09T15:43:20;0.70;;;0.50;;
57643;SDS011;43474;46.510;6.686;2022-09-09T15:45:48;2.05;;;0.70;;
57643;SDS011;43474;46.510;6.686;2022-09-09T15:48:21;1.13;;;0.50;;
57643;SDS011;43474;46.510;6.686;2022-09-09T15:51:04;2.40;;;0.75;;
57643;SDS011;43474;46.510;6.686;2022-09-09T15:53:30;4.07;;;0.70;;
57643;SDS011;43474;46.510;6.686;2022-09-09T15:55:59;2.25;;;0.60;;
57643;SDS011;43474;46.510;6.686;2022-09-09T15:58:24;2.10;;;0.70;;
57643;SDS011;43474;46.510;6.686;2022-09-09T16:00:50;1.55;;;0.60;;
57643;SDS011;43474;46.510;6.686;2022-09-09T16:03:16;0.40;;;0.40;;
57643;SDS011;43474;46.510;6.686;2022-09-09T16:05:41;2.00;;;0.70;;
57643;SDS011;43474;46.510;6.686;2022-09-09T16:08:07;2.33;;;0.55;;
57643;SDS011;43474;46.510;6.686;2022-09-09T16:10:32;2.13;;;0.60;;
57643;SDS011;43474;46.510;6.686;2022-09-09T16:12:58;2.72;;;0.43;;
57643;SDS011;43474;46.510;6.686;2022-09-09T16:15:24;3.33;;;0.63;;
57643;SDS011;43474;46.510;6.686;2022-09-09T16:17:53;1.98;;;0.55;;
57643;SDS011;43474;46.510;6.686;2022-09-09T16:20:18;1.80;;;0.43;;
57643;SDS011;43474;46.510;6.686;2022-09-09T16:22:44;2.10;;;0.60;;
57643;SDS011;43474;46.510;6.686;2022-09-09T16:25:09;1.60;;;0.50;;
57643;SDS011;43474;46.510;6.686;2022-09-09T16:27:35;1.95;;;0.60;;
57643;SDS011;43474;46.510;6.686;2022-09-09T16:30:01;1.38;;;0.73;;
57643;SDS011;43474;46.510;6.686;2022-09-09T16:32:27;1.75;;;0.60;;
57643;SDS011;43474;46.510;6.686;2022-09-09T16:34:53;3.83;;;1.10;;
57643;SDS011;43474;46.510;6.686;2022-09-09T16:37:18;3.55;;;0.70;;
57643;SDS011;43474;46.510;6.686;2022-09-09T16:39:44;1.83;;;0.70;;
57643;SDS011;43474;46.510;6.686;2022-09-09T16:42:09;2.75;;;0.80;;
57643;SDS011;43474;46.510;6.686;2022-09-09T16:44:35;0.88;;;0.65;;
57643;SDS011;43474;46.510;6.686;2022-09-09T16:47:01;4.20;;;0.75;;
57643;SDS011;43474;46.510;6.686;2022-09-09T16:49:26;2.35;;;0.75;;
57643;SDS011;43474;46.510;6.686;2022-09-09T16:51:53;2.03;;;0.60;;
57643;SDS011;43474;46.510;6.686;2022-09-09T16:54:19;3.30;;;0.80;;
57643;SDS011;43474;46.510;6.686;2022-09-09T16:56:46;2.85;;;0.60;;
57643;SDS011;43474;46.510;6.686;2022-09-09T16:59:16;3.03;;;0.65;;
57643;SDS011;43474;46.510;6.686;2022-09-09T17:01:44;2.38;;;0.57;;
57643;SDS011;43474;46.510;6.686;2022-09-09T17:04:13;1.35;;;0.55;;
57643;SDS011;43474;46.510;6.686;2022-09-09T17:06:41;5.93;;;0.70;;